sensor_id;sensor_type;location;lat;lon;timestamp;temperature;humidity
45765;DHT22;31474;45.332;10.230;2023-05-31T00:00:14;21.40;99.70
45765;DHT22;31474;45.332;10.230;2023-05-31T00:02:40;21.40;99.70
45765;DHT22;31474;45.332;10.230;2023-05-31T00:05:06;21.30;99.90
45765;DHT22;31474;45.332;10.230;2023-05-31T00:07:32;21.10;99.90
45765;DHT22;31474;45.332;10.230;2023-05-31T00:09:57;21.10;99.90
45765;DHT22;31474;45.332;10.230;2023-05-31T00:12:23;21.10;99.90
45765;DHT22;31474;45.332;10.230;2023-05-31T00:14:49;21.00;99.90
45765;DHT22;31474;45.332;10.230;2023-05-31T00:17:14;20.90;99.90
45765;DHT22;31474;45.332;10.230;2023-05-31T00:19:40;20.90;99.90
45765;DHT22;31474;45.332;10.230;2023-05-31T00:22:06;21.00;99.90
45765;DHT22;31474;45.332;10.230;2023-05-31T00:24:31;21.00;99.90
45765;DHT22;31474;45.332;10.230;2023-05-31T00:26:57;21.10;99.90
45765;DHT22;31474;45.332;10.230;2023-05-31T00:29:22;21.10;99.90
45765;DHT22;31474;45.332;10.230;2023-05-31T00:31:48;21.10;99.90
45765;DHT22;31474;45.332;10.230;2023-05-31T00:34:14;21.10;99.90
45765;DHT22;31474;45.332;10.230;2023-05-31T00:36:39;21.20;99.90
45765;DHT22;31474;45.332;10.230;2023-05-31T00:39:05;21.10;99.80
45765;DHT22;31474;45.332;10.230;2023-05-31T00:41:31;21.00;99.90
45765;DHT22;31474;45.332;10.230;2023-05-31T00:43:56;21.10;99.90
45765;DHT22;31474;45.332;10.230;2023-05-31T00:46:34;21.10;99.70
45765;DHT22;31474;45.332;10.230;2023-05-31T00:49:02;21.00;99.90
45765;DHT22;31474;45.332;10.230;2023-05-31T00:51:29;20.90;99.90
45765;DHT22;31474;45.332;10.230;2023-05-31T00:53:57;20.80;99.90
45765;DHT22;31474;45.332;10.230;2023-05-31T00:56:23;20.70;99.90
45765;DHT22;31474;45.332;10.230;2023-05-31T00:58:49;20.80;99.90
45765;DHT22;31474;45.332;10.230;2023-05-31T01:01:18;20.80;99.90
45765;DHT22;31474;45.332;10.230;2023-05-31T01:03:45;20.80;99.90
45765;DHT22;31474;45.332;10.230;2023-05-31T01:06:11;20.70;99.90
45765;DHT22;31474;45.332;10.230;2023-05-31T01:08:38;20.60;99.80
45765;DHT22;31474;45.332;10.230;2023-05-31T01:13:55;20.70;99.90
45765;DHT22;31474;45.332;10.230;2023-05-31T01:16:31;20.70;99.60
45765;DHT22;31474;45.332;10.230;2023-05-31T01:19:01;20.80;99.60
45765;DHT22;31474;45.332;10.230;2023-05-31T01:21:52;20.80;99.50
45765;DHT22;31474;45.332;10.230;2023-05-31T01:24:27;20.80;99.80
45765;DHT22;31474;45.332;10.230;2023-05-31T01:26:58;20.90;99.30
45765;DHT22;31474;45.332;10.230;2023-05-31T01:29:26;21.00;99.50
45765;DHT22;31474;45.332;10.230;2023-05-31T01:31:53;21.00;99.30
45765;DHT22;31474;45.332;10.230;2023-05-31T01:34:20;21.10;99.50
45765;DHT22;31474;45.332;10.230;2023-05-31T01:36:46;21.10;99.40
45765;DHT22;31474;45.332;10.230;2023-05-31T01:39:11;21.10;99.20
45765;DHT22;31474;45.332;10.230;2023-05-31T01:41:42;21.10;99.20
45765;DHT22;31474;45.332;10.230;2023-05-31T01:44:10;21.10;99.30
45765;DHT22;31474;45.332;10.230;2023-05-31T01:46:39;21.20;99.10
45765;DHT22;31474;45.332;10.230;2023-05-31T01:49:06;21.20;99.00
45765;DHT22;31474;45.332;10.230;2023-05-31T01:51:33;21.20;98.90
45765;DHT22;31474;45.332;10.230;2023-05-31T01:54:01;21.20;98.90
45765;DHT22;31474;45.332;10.230;2023-05-31T01:56:28;21.20;98.70
45765;DHT22;31474;45.332;10.230;2023-05-31T01:58:57;21.20;98.70
45765;DHT22;31474;45.332;10.230;2023-05-31T02:01:23;21.20;98.70
45765;DHT22;31474;45.332;10.230;2023-05-31T02:03:50;21.10;98.60
45765;DHT22;31474;45.332;10.230;2023-05-31T02:06:19;21.20;98.60
45765;DHT22;31474;45.332;10.230;2023-05-31T02:08:44;21.10;98.50
45765;DHT22;31474;45.332;10.230;2023-05-31T02:11:10;21.20;98.90
45765;DHT22;31474;45.332;10.230;2023-05-31T02:13:36;21.20;99.10
45765;DHT22;31474;45.332;10.230;2023-05-31T02:16:02;21.10;99.10
45765;DHT22;31474;45.332;10.230;2023-05-31T02:18:31;21.00;99.10
45765;DHT22;31474;45.332;10.230;2023-05-31T02:20:57;21.00;99.20
45765;DHT22;31474;45.332;10.230;2023-05-31T02:23:23;21.00;99.30
45765;DHT22;31474;45.332;10.230;2023-05-31T02:25:49;21.00;99.40
45765;DHT22;31474;45.332;10.230;2023-05-31T02:28:16;21.00;99.20
45765;DHT22;31474;45.332;10.230;2023-05-31T02:30:52;21.00;99.10
45765;DHT22;31474;45.332;10.230;2023-05-31T02:33:18;21.00;99.20
45765;DHT22;31474;45.332;10.230;2023-05-31T02:35:43;21.00;99.00
45765;DHT22;31474;45.332;10.230;2023-05-31T02:38:09;21.00;99.00
45765;DHT22;31474;45.332;10.230;2023-05-31T02:40:35;21.00;99.10
45765;DHT22;31474;45.332;10.230;2023-05-31T02:43:01;21.00;99.00
45765;DHT22;31474;45.332;10.230;2023-05-31T02:45:27;21.00;99.00
45765;DHT22;31474;45.332;10.230;2023-05-31T02:47:53;20.90;99.10
45765;DHT22;31474;45.332;10.230;2023-05-31T02:50:19;20.90;99.00
45765;DHT22;31474;45.332;10.230;2023-05-31T02:52:44;20.90;98.90
45765;DHT22;31474;45.332;10.230;2023-05-31T02:55:10;21.00;98.90
45765;DHT22;31474;45.332;10.230;2023-05-31T02:57:36;21.00;99.00
45765;DHT22;31474;45.332;10.230;2023-05-31T03:00:03;21.00;98.70
45765;DHT22;31474;45.332;10.230;2023-05-31T03:02:39;21.00;98.60
45765;DHT22;31474;45.332;10.230;2023-05-31T03:05:06;21.00;98.50
45765;DHT22;31474;45.332;10.230;2023-05-31T03:07:33;21.00;98.30
45765;DHT22;31474;45.332;10.230;2023-05-31T03:09:59;21.10;98.30
45765;DHT22;31474;45.332;10.230;2023-05-31T03:12:24;21.00;97.90
45765;DHT22;31474;45.332;10.230;2023-05-31T03:14:50;21.00;98.00
45765;DHT22;31474;45.332;10.230;2023-05-31T03:17:16;21.00;97.60
45765;DHT22;31474;45.332;10.230;2023-05-31T03:19:42;20.90;97.70
45765;DHT22;31474;45.332;10.230;2023-05-31T03:22:07;20.70;96.30
45765;DHT22;31474;45.332;10.230;2023-05-31T03:24:33;20.80;96.80
45765;DHT22;31474;45.332;10.230;2023-05-31T03:26:58;20.70;96.70
45765;DHT22;31474;45.332;10.230;2023-05-31T03:29:26;20.60;96.50
45765;DHT22;31474;45.332;10.230;2023-05-31T03:31:51;20.60;96.60
45765;DHT22;31474;45.332;10.230;2023-05-31T03:34:17;20.60;97.10
45765;DHT22;31474;45.332;10.230;2023-05-31T03:36:43;20.60;98.20
45765;DHT22;31474;45.332;10.230;2023-05-31T03:39:08;20.40;99.60
45765;DHT22;31474;45.332;10.230;2023-05-31T03:41:34;20.10;99.90
45765;DHT22;31474;45.332;10.230;2023-05-31T03:44:00;19.90;99.90
45765;DHT22;31474;45.332;10.230;2023-05-31T03:46:35;19.80;99.90
45765;DHT22;31474;45.332;10.230;2023-05-31T03:49:01;19.60;99.90
45765;DHT22;31474;45.332;10.230;2023-05-31T03:51:28;19.50;99.90
45765;DHT22;31474;45.332;10.230;2023-05-31T03:53:54;19.50;99.90
45765;DHT22;31474;45.332;10.230;2023-05-31T03:56:20;19.60;99.90
45765;DHT22;31474;45.332;10.230;2023-05-31T03:58:46;19.50;99.90
45765;DHT22;31474;45.332;10.230;2023-05-31T04:01:11;19.60;99.90
45765;DHT22;31474;45.332;10.230;2023-05-31T04:03:38;19.70;99.90
45765;DHT22;31474;45.332;10.230;2023-05-31T04:06:03;19.70;99.90
45765;DHT22;31474;45.332;10.230;2023-05-31T04:08:29;19.90;99.90
45765;DHT22;31474;45.332;10.230;2023-05-31T04:10:55;20.00;99.90
45765;DHT22;31474;45.332;10.230;2023-05-31T04:13:20;20.10;99.90
45765;DHT22;31474;45.332;10.230;2023-05-31T04:15:46;20.20;99.90
45765;DHT22;31474;45.332;10.230;2023-05-31T04:18:12;20.20;99.90
45765;DHT22;31474;45.332;10.230;2023-05-31T04:20:37;20.30;99.90
45765;DHT22;31474;45.332;10.230;2023-05-31T04:23:03;20.40;99.90
45765;DHT22;31474;45.332;10.230;2023-05-31T04:25:29;20.50;99.90
45765;DHT22;31474;45.332;10.230;2023-05-31T04:27:54;20.50;99.90
45765;DHT22;31474;45.332;10.230;2023-05-31T04:30:21;20.50;99.90
45765;DHT22;31474;45.332;10.230;2023-05-31T04:32:49;20.50;99.90
45765;DHT22;31474;45.332;10.230;2023-05-31T04:35:16;20.50;99.90
45765;DHT22;31474;45.332;10.230;2023-05-31T04:37:42;20.50;99.90
45765;DHT22;31474;45.332;10.230;2023-05-31T04:40:08;20.50;99.90
45765;DHT22;31474;45.332;10.230;2023-05-31T04:42:37;20.40;99.90
45765;DHT22;31474;45.332;10.230;2023-05-31T04:45:03;20.40;99.50
45765;DHT22;31474;45.332;10.230;2023-05-31T04:47:33;20.40;99.10
45765;DHT22;31474;45.332;10.230;2023-05-31T04:49:59;20.30;98.70
45765;DHT22;31474;45.332;10.230;2023-05-31T04:52:29;20.50;99.60
45765;DHT22;31474;45.332;10.230;2023-05-31T04:55:00;20.60;99.60
45765;DHT22;31474;45.332;10.230;2023-05-31T04:57:28;20.70;99.90
45765;DHT22;31474;45.332;10.230;2023-05-31T04:59:54;20.90;99.90
45765;DHT22;31474;45.332;10.230;2023-05-31T05:02:22;20.90;99.90
45765;DHT22;31474;45.332;10.230;2023-05-31T05:04:48;20.90;99.90
45765;DHT22;31474;45.332;10.230;2023-05-31T05:07:14;20.90;99.90
45765;DHT22;31474;45.332;10.230;2023-05-31T05:09:40;21.10;99.90
45765;DHT22;31474;45.332;10.230;2023-05-31T05:12:06;21.20;99.90
45765;DHT22;31474;45.332;10.230;2023-05-31T05:14:33;21.20;99.90
45765;DHT22;31474;45.332;10.230;2023-05-31T05:16:58;21.40;99.80
45765;DHT22;31474;45.332;10.230;2023-05-31T05:19:24;21.40;99.80
45765;DHT22;31474;45.332;10.230;2023-05-31T05:21:50;21.60;98.60
45765;DHT22;31474;45.332;10.230;2023-05-31T05:24:15;21.80;98.90
45765;DHT22;31474;45.332;10.230;2023-05-31T05:26:42;21.90;98.60
45765;DHT22;31474;45.332;10.230;2023-05-31T05:29:07;22.10;98.40
45765;DHT22;31474;45.332;10.230;2023-05-31T05:31:33;22.30;97.50
45765;DHT22;31474;45.332;10.230;2023-05-31T05:33:59;22.40;97.60
45765;DHT22;31474;45.332;10.230;2023-05-31T05:36:24;22.40;97.60
45765;DHT22;31474;45.332;10.230;2023-05-31T05:38:50;22.60;97.70
45765;DHT22;31474;45.332;10.230;2023-05-31T05:41:16;22.70;97.20
45765;DHT22;31474;45.332;10.230;2023-05-31T05:43:42;22.70;97.20
45765;DHT22;31474;45.332;10.230;2023-05-31T05:46:08;22.70;96.80
45765;DHT22;31474;45.332;10.230;2023-05-31T05:48:34;22.80;96.40
45765;DHT22;31474;45.332;10.230;2023-05-31T05:51:00;22.90;96.60
45765;DHT22;31474;45.332;10.230;2023-05-31T05:53:26;22.90;97.10
45765;DHT22;31474;45.332;10.230;2023-05-31T05:55:52;23.00;96.90
45765;DHT22;31474;45.332;10.230;2023-05-31T05:58:18;23.00;96.20
45765;DHT22;31474;45.332;10.230;2023-05-31T06:00:45;23.00;96.30
45765;DHT22;31474;45.332;10.230;2023-05-31T06:03:11;23.00;95.80
45765;DHT22;31474;45.332;10.230;2023-05-31T06:05:37;23.10;95.90
45765;DHT22;31474;45.332;10.230;2023-05-31T06:08:03;23.30;96.10
45765;DHT22;31474;45.332;10.230;2023-05-31T06:10:29;23.40;95.60
45765;DHT22;31474;45.332;10.230;2023-05-31T06:12:55;23.50;95.60
45765;DHT22;31474;45.332;10.230;2023-05-31T06:15:20;23.40;95.20
45765;DHT22;31474;45.332;10.230;2023-05-31T06:17:46;23.60;95.90
45765;DHT22;31474;45.332;10.230;2023-05-31T06:20:14;23.50;94.90
45765;DHT22;31474;45.332;10.230;2023-05-31T06:22:41;23.50;95.10
45765;DHT22;31474;45.332;10.230;2023-05-31T06:25:06;23.80;94.90
45765;DHT22;31474;45.332;10.230;2023-05-31T06:27:33;23.50;94.60
45765;DHT22;31474;45.332;10.230;2023-05-31T06:30:00;23.40;94.10
45765;DHT22;31474;45.332;10.230;2023-05-31T06:32:27;23.40;94.90
45765;DHT22;31474;45.332;10.230;2023-05-31T06:34:53;23.60;94.30
45765;DHT22;31474;45.332;10.230;2023-05-31T06:37:20;23.60;94.60
45765;DHT22;31474;45.332;10.230;2023-05-31T06:39:45;23.80;95.20
45765;DHT22;31474;45.332;10.230;2023-05-31T06:42:11;23.90;94.20
45765;DHT22;31474;45.332;10.230;2023-05-31T06:44:37;24.00;93.40
45765;DHT22;31474;45.332;10.230;2023-05-31T06:47:03;24.10;94.00
45765;DHT22;31474;45.332;10.230;2023-05-31T06:49:29;24.20;93.40
45765;DHT22;31474;45.332;10.230;2023-05-31T06:51:55;24.20;94.20
45765;DHT22;31474;45.332;10.230;2023-05-31T06:54:20;24.00;93.30
45765;DHT22;31474;45.332;10.230;2023-05-31T06:56:46;24.00;93.70
45765;DHT22;31474;45.332;10.230;2023-05-31T06:59:11;24.10;93.90
45765;DHT22;31474;45.332;10.230;2023-05-31T07:01:37;23.90;92.90
45765;DHT22;31474;45.332;10.230;2023-05-31T07:04:03;23.90;93.20
45765;DHT22;31474;45.332;10.230;2023-05-31T07:06:28;24.00;93.30
45765;DHT22;31474;45.332;10.230;2023-05-31T07:08:54;24.10;93.10
45765;DHT22;31474;45.332;10.230;2023-05-31T07:11:20;24.40;93.20
45765;DHT22;31474;45.332;10.230;2023-05-31T07:13:47;24.60;92.70
45765;DHT22;31474;45.332;10.230;2023-05-31T07:16:13;24.70;92.90
45765;DHT22;31474;45.332;10.230;2023-05-31T07:18:39;24.70;92.20
45765;DHT22;31474;45.332;10.230;2023-05-31T07:21:04;24.50;92.00
45765;DHT22;31474;45.332;10.230;2023-05-31T07:23:30;24.70;92.50
45765;DHT22;31474;45.332;10.230;2023-05-31T07:25:56;25.00;92.00
45765;DHT22;31474;45.332;10.230;2023-05-31T07:28:26;25.20;92.50
45765;DHT22;31474;45.332;10.230;2023-05-31T07:30:51;25.40;92.10
45765;DHT22;31474;45.332;10.230;2023-05-31T07:33:17;25.50;91.10
45765;DHT22;31474;45.332;10.230;2023-05-31T07:35:43;25.30;90.50
45765;DHT22;31474;45.332;10.230;2023-05-31T07:38:09;25.40;91.40
45765;DHT22;31474;45.332;10.230;2023-05-31T07:40:35;25.30;90.90
45765;DHT22;31474;45.332;10.230;2023-05-31T07:43:01;25.40;90.10
45765;DHT22;31474;45.332;10.230;2023-05-31T07:45:26;25.50;90.90
45765;DHT22;31474;45.332;10.230;2023-05-31T07:47:52;25.60;91.10
45765;DHT22;31474;45.332;10.230;2023-05-31T07:50:18;25.50;89.50
45765;DHT22;31474;45.332;10.230;2023-05-31T07:52:44;25.30;88.30
45765;DHT22;31474;45.332;10.230;2023-05-31T07:55:12;25.50;90.40
45765;DHT22;31474;45.332;10.230;2023-05-31T07:57:38;25.50;89.00
45765;DHT22;31474;45.332;10.230;2023-05-31T08:00:04;25.60;90.30
45765;DHT22;31474;45.332;10.230;2023-05-31T08:02:31;25.60;90.20
45765;DHT22;31474;45.332;10.230;2023-05-31T08:04:56;25.80;90.60
45765;DHT22;31474;45.332;10.230;2023-05-31T08:07:27;26.00;91.10
45765;DHT22;31474;45.332;10.230;2023-05-31T08:09:53;25.90;89.30
45765;DHT22;31474;45.332;10.230;2023-05-31T08:12:18;26.00;89.90
45765;DHT22;31474;45.332;10.230;2023-05-31T08:14:44;26.10;89.10
45765;DHT22;31474;45.332;10.230;2023-05-31T08:17:10;25.90;89.40
45765;DHT22;31474;45.332;10.230;2023-05-31T08:19:35;25.80;90.60
45765;DHT22;31474;45.332;10.230;2023-05-31T08:22:01;26.00;90.60
45765;DHT22;31474;45.332;10.230;2023-05-31T08:24:28;26.20;91.10
45765;DHT22;31474;45.332;10.230;2023-05-31T08:26:53;26.50;90.80
45765;DHT22;31474;45.332;10.230;2023-05-31T08:29:21;26.20;88.80
45765;DHT22;31474;45.332;10.230;2023-05-31T08:31:47;26.30;90.10
45765;DHT22;31474;45.332;10.230;2023-05-31T08:34:13;26.20;87.60
45765;DHT22;31474;45.332;10.230;2023-05-31T08:36:39;26.20;88.90
45765;DHT22;31474;45.332;10.230;2023-05-31T08:39:06;26.20;89.10
45765;DHT22;31474;45.332;10.230;2023-05-31T08:41:43;26.40;88.40
45765;DHT22;31474;45.332;10.230;2023-05-31T08:44:13;26.50;88.90
45765;DHT22;31474;45.332;10.230;2023-05-31T08:46:41;26.50;86.80
45765;DHT22;31474;45.332;10.230;2023-05-31T08:49:10;26.50;88.80
45765;DHT22;31474;45.332;10.230;2023-05-31T08:51:38;26.60;86.50
45765;DHT22;31474;45.332;10.230;2023-05-31T08:54:06;26.80;87.50
45765;DHT22;31474;45.332;10.230;2023-05-31T08:56:32;26.80;87.60
45765;DHT22;31474;45.332;10.230;2023-05-31T08:58:58;26.80;86.20
45765;DHT22;31474;45.332;10.230;2023-05-31T09:01:25;26.90;85.50
45765;DHT22;31474;45.332;10.230;2023-05-31T09:03:53;26.70;85.70
45765;DHT22;31474;45.332;10.230;2023-05-31T09:06:19;26.60;87.60
45765;DHT22;31474;45.332;10.230;2023-05-31T09:08:45;26.80;87.10
45765;DHT22;31474;45.332;10.230;2023-05-31T09:11:11;26.60;85.90
45765;DHT22;31474;45.332;10.230;2023-05-31T09:13:37;26.70;86.90
45765;DHT22;31474;45.332;10.230;2023-05-31T09:16:03;26.80;88.20
45765;DHT22;31474;45.332;10.230;2023-05-31T09:18:36;27.00;87.00
45765;DHT22;31474;45.332;10.230;2023-05-31T09:21:13;26.90;85.50
45765;DHT22;31474;45.332;10.230;2023-05-31T09:23:57;27.00;86.40
45765;DHT22;31474;45.332;10.230;2023-05-31T09:26:24;27.20;86.80
45765;DHT22;31474;45.332;10.230;2023-05-31T09:28:51;27.40;87.60
45765;DHT22;31474;45.332;10.230;2023-05-31T09:31:18;27.50;86.30
45765;DHT22;31474;45.332;10.230;2023-05-31T09:33:45;27.40;85.60
45765;DHT22;31474;45.332;10.230;2023-05-31T09:36:13;27.20;86.50
45765;DHT22;31474;45.332;10.230;2023-05-31T09:38:39;27.40;88.10
45765;DHT22;31474;45.332;10.230;2023-05-31T09:41:16;27.50;87.60
45765;DHT22;31474;45.332;10.230;2023-05-31T09:43:45;27.20;85.40
45765;DHT22;31474;45.332;10.230;2023-05-31T09:48:41;27.20;86.20
45765;DHT22;31474;45.332;10.230;2023-05-31T09:51:08;27.20;86.00
45765;DHT22;31474;45.332;10.230;2023-05-31T09:53:44;27.10;86.30
45765;DHT22;31474;45.332;10.230;2023-05-31T09:56:18;27.10;86.30
45765;DHT22;31474;45.332;10.230;2023-05-31T09:58:44;27.00;85.80
45765;DHT22;31474;45.332;10.230;2023-05-31T10:01:10;26.70;87.00
45765;DHT22;31474;45.332;10.230;2023-05-31T10:03:37;26.80;88.10
45765;DHT22;31474;45.332;10.230;2023-05-31T10:06:03;26.80;86.50
45765;DHT22;31474;45.332;10.230;2023-05-31T10:08:29;26.80;87.00
45765;DHT22;31474;45.332;10.230;2023-05-31T10:10:59;26.70;87.00
45765;DHT22;31474;45.332;10.230;2023-05-31T10:13:30;26.60;87.00
45765;DHT22;31474;45.332;10.230;2023-05-31T10:16:05;26.80;86.50
45765;DHT22;31474;45.332;10.230;2023-05-31T10:18:33;26.90;86.60
45765;DHT22;31474;45.332;10.230;2023-05-31T10:21:17;26.90;85.40
45765;DHT22;31474;45.332;10.230;2023-05-31T10:23:57;27.00;84.20
45765;DHT22;31474;45.332;10.230;2023-05-31T10:29:26;26.90;85.60
45765;DHT22;31474;45.332;10.230;2023-05-31T10:31:55;27.10;84.30
45765;DHT22;31474;45.332;10.230;2023-05-31T10:34:25;27.10;85.00
45765;DHT22;31474;45.332;10.230;2023-05-31T10:36:55;27.10;86.10
45765;DHT22;31474;45.332;10.230;2023-05-31T10:44:46;27.10;82.40
45765;DHT22;31474;45.332;10.230;2023-05-31T10:47:15;26.90;81.50
45765;DHT22;31474;45.332;10.230;2023-05-31T10:49:46;26.90;81.90
45765;DHT22;31474;45.332;10.230;2023-05-31T10:52:16;27.00;84.30
45765;DHT22;31474;45.332;10.230;2023-05-31T10:54:42;27.30;85.00
45765;DHT22;31474;45.332;10.230;2023-05-31T10:57:07;27.70;87.60
45765;DHT22;31474;45.332;10.230;2023-05-31T10:59:44;27.90;86.20
45765;DHT22;31474;45.332;10.230;2023-05-31T11:02:11;28.10;83.40
45765;DHT22;31474;45.332;10.230;2023-05-31T11:04:37;27.70;82.10
45765;DHT22;31474;45.332;10.230;2023-05-31T11:07:13;27.80;83.40
45765;DHT22;31474;45.332;10.230;2023-05-31T11:10:01;27.70;80.00
45765;DHT22;31474;45.332;10.230;2023-05-31T11:12:35;27.70;81.70
45765;DHT22;31474;45.332;10.230;2023-05-31T11:15:04;27.80;79.90
45765;DHT22;31474;45.332;10.230;2023-05-31T11:17:39;27.70;82.00
45765;DHT22;31474;45.332;10.230;2023-05-31T11:20:06;27.70;81.10
45765;DHT22;31474;45.332;10.230;2023-05-31T11:22:32;27.60;81.50
45765;DHT22;31474;45.332;10.230;2023-05-31T11:24:58;27.50;80.30
45765;DHT22;31474;45.332;10.230;2023-05-31T11:27:35;27.50;81.60
45765;DHT22;31474;45.332;10.230;2023-05-31T11:30:01;27.50;80.40
45765;DHT22;31474;45.332;10.230;2023-05-31T11:35:05;27.70;80.90
45765;DHT22;31474;45.332;10.230;2023-05-31T11:37:33;27.70;81.60
45765;DHT22;31474;45.332;10.230;2023-05-31T11:40:10;27.70;81.40
45765;DHT22;31474;45.332;10.230;2023-05-31T11:42:39;27.70;81.70
45765;DHT22;31474;45.332;10.230;2023-05-31T11:45:10;27.70;80.90
45765;DHT22;31474;45.332;10.230;2023-05-31T11:50:14;27.60;80.30
45765;DHT22;31474;45.332;10.230;2023-05-31T11:52:43;27.60;80.90
45765;DHT22;31474;45.332;10.230;2023-05-31T11:55:10;27.60;81.00
45765;DHT22;31474;45.332;10.230;2023-05-31T11:57:44;27.50;80.90
45765;DHT22;31474;45.332;10.230;2023-05-31T12:00:11;27.60;81.30
45765;DHT22;31474;45.332;10.230;2023-05-31T12:02:41;27.70;81.90
45765;DHT22;31474;45.332;10.230;2023-05-31T12:05:14;27.80;81.50
45765;DHT22;31474;45.332;10.230;2023-05-31T12:07:41;27.90;81.00
45765;DHT22;31474;45.332;10.230;2023-05-31T12:10:08;27.80;80.30
45765;DHT22;31474;45.332;10.230;2023-05-31T12:12:35;27.70;78.40
45765;DHT22;31474;45.332;10.230;2023-05-31T12:15:02;27.70;80.10
45765;DHT22;31474;45.332;10.230;2023-05-31T12:17:33;27.70;78.40
45765;DHT22;31474;45.332;10.230;2023-05-31T12:20:00;27.60;78.20
45765;DHT22;31474;45.332;10.230;2023-05-31T12:22:26;27.60;81.40
45765;DHT22;31474;45.332;10.230;2023-05-31T12:24:54;27.60;81.40
45765;DHT22;31474;45.332;10.230;2023-05-31T12:27:22;27.70;80.90
45765;DHT22;31474;45.332;10.230;2023-05-31T12:29:47;27.70;81.10
45765;DHT22;31474;45.332;10.230;2023-05-31T12:32:13;27.80;81.10
45765;DHT22;31474;45.332;10.230;2023-05-31T12:34:39;27.70;79.50
45765;DHT22;31474;45.332;10.230;2023-05-31T12:37:06;27.60;80.80
45765;DHT22;31474;45.332;10.230;2023-05-31T12:39:32;27.70;80.70
45765;DHT22;31474;45.332;10.230;2023-05-31T12:42:02;27.80;80.40
45765;DHT22;31474;45.332;10.230;2023-05-31T12:44:30;27.80;80.50
45765;DHT22;31474;45.332;10.230;2023-05-31T12:47:03;27.90;80.00
45765;DHT22;31474;45.332;10.230;2023-05-31T12:49:32;27.80;79.00
45765;DHT22;31474;45.332;10.230;2023-05-31T12:54:26;27.90;80.70
45765;DHT22;31474;45.332;10.230;2023-05-31T12:56:52;27.90;80.30
45765;DHT22;31474;45.332;10.230;2023-05-31T12:59:18;28.00;79.90
45765;DHT22;31474;45.332;10.230;2023-05-31T13:01:44;28.10;79.20
45765;DHT22;31474;45.332;10.230;2023-05-31T13:04:10;27.90;77.70
45765;DHT22;31474;45.332;10.230;2023-05-31T13:06:40;27.90;79.60
45765;DHT22;31474;45.332;10.230;2023-05-31T13:09:06;27.90;77.90
45765;DHT22;31474;45.332;10.230;2023-05-31T13:11:34;28.00;79.60
45765;DHT22;31474;45.332;10.230;2023-05-31T13:14:00;27.90;78.50
45765;DHT22;31474;45.332;10.230;2023-05-31T13:16:26;27.80;79.50
45765;DHT22;31474;45.332;10.230;2023-05-31T13:18:52;27.80;80.00
45765;DHT22;31474;45.332;10.230;2023-05-31T13:21:17;27.80;79.00
45765;DHT22;31474;45.332;10.230;2023-05-31T13:23:43;27.80;79.10
45765;DHT22;31474;45.332;10.230;2023-05-31T13:26:09;28.00;78.90
45765;DHT22;31474;45.332;10.230;2023-05-31T13:28:34;27.80;77.70
45765;DHT22;31474;45.332;10.230;2023-05-31T13:31:00;27.80;79.50
45765;DHT22;31474;45.332;10.230;2023-05-31T13:33:26;27.90;80.00
45765;DHT22;31474;45.332;10.230;2023-05-31T13:35:54;27.80;79.70
45765;DHT22;31474;45.332;10.230;2023-05-31T13:38:21;27.90;79.60
45765;DHT22;31474;45.332;10.230;2023-05-31T13:40:47;27.80;78.80
45765;DHT22;31474;45.332;10.230;2023-05-31T13:43:13;27.90;79.10
45765;DHT22;31474;45.332;10.230;2023-05-31T13:45:39;27.90;78.50
45765;DHT22;31474;45.332;10.230;2023-05-31T13:48:05;27.80;76.60
45765;DHT22;31474;45.332;10.230;2023-05-31T13:50:31;27.80;78.10
45765;DHT22;31474;45.332;10.230;2023-05-31T13:52:56;27.90;77.30
45765;DHT22;31474;45.332;10.230;2023-05-31T13:55:22;28.00;78.10
45765;DHT22;31474;45.332;10.230;2023-05-31T13:57:47;28.20;77.60
45765;DHT22;31474;45.332;10.230;2023-05-31T14:00:13;28.00;78.20
45765;DHT22;31474;45.332;10.230;2023-05-31T14:02:39;28.00;78.10
45765;DHT22;31474;45.332;10.230;2023-05-31T14:05:08;27.70;76.40
45765;DHT22;31474;45.332;10.230;2023-05-31T14:07:34;27.70;77.20
45765;DHT22;31474;45.332;10.230;2023-05-31T14:10:01;27.50;77.80
45765;DHT22;31474;45.332;10.230;2023-05-31T14:12:28;27.60;78.10
45765;DHT22;31474;45.332;10.230;2023-05-31T14:14:53;27.60;78.00
45765;DHT22;31474;45.332;10.230;2023-05-31T14:17:19;27.50;77.10
45765;DHT22;31474;45.332;10.230;2023-05-31T14:19:45;27.50;77.10
45765;DHT22;31474;45.332;10.230;2023-05-31T14:22:11;27.60;77.40
45765;DHT22;31474;45.332;10.230;2023-05-31T14:24:36;27.70;77.60
45765;DHT22;31474;45.332;10.230;2023-05-31T14:27:02;27.70;76.90
45765;DHT22;31474;45.332;10.230;2023-05-31T14:29:28;27.70;75.50
45765;DHT22;31474;45.332;10.230;2023-05-31T14:31:53;27.70;76.90
45765;DHT22;31474;45.332;10.230;2023-05-31T14:34:19;27.90;76.60
45765;DHT22;31474;45.332;10.230;2023-05-31T14:36:45;27.90;76.10
45765;DHT22;31474;45.332;10.230;2023-05-31T14:39:10;27.90;77.10
45765;DHT22;31474;45.332;10.230;2023-05-31T14:41:36;27.90;74.50
45765;DHT22;31474;45.332;10.230;2023-05-31T14:44:02;27.90;75.60
45765;DHT22;31474;45.332;10.230;2023-05-31T14:46:28;27.90;75.30
45765;DHT22;31474;45.332;10.230;2023-05-31T14:48:53;27.90;75.30
45765;DHT22;31474;45.332;10.230;2023-05-31T14:51:19;27.80;75.70
45765;DHT22;31474;45.332;10.230;2023-05-31T14:53:45;27.80;76.00
45765;DHT22;31474;45.332;10.230;2023-05-31T14:56:11;27.80;76.40
45765;DHT22;31474;45.332;10.230;2023-05-31T14:58:36;27.80;75.80
45765;DHT22;31474;45.332;10.230;2023-05-31T15:01:02;27.80;74.60
45765;DHT22;31474;45.332;10.230;2023-05-31T15:03:27;27.80;76.40
45765;DHT22;31474;45.332;10.230;2023-05-31T15:05:53;27.80;76.40
45765;DHT22;31474;45.332;10.230;2023-05-31T15:08:19;27.90;75.90
45765;DHT22;31474;45.332;10.230;2023-05-31T15:10:44;27.80;76.10
45765;DHT22;31474;45.332;10.230;2023-05-31T15:13:10;27.70;77.00
45765;DHT22;31474;45.332;10.230;2023-05-31T15:15:36;27.60;76.20
45765;DHT22;31474;45.332;10.230;2023-05-31T15:18:03;27.60;76.30
45765;DHT22;31474;45.332;10.230;2023-05-31T15:20:29;27.60;76.10
45765;DHT22;31474;45.332;10.230;2023-05-31T15:22:55;27.50;76.50
45765;DHT22;31474;45.332;10.230;2023-05-31T15:25:21;27.50;75.10
45765;DHT22;31474;45.332;10.230;2023-05-31T15:27:47;27.60;76.80
45765;DHT22;31474;45.332;10.230;2023-05-31T15:30:13;27.60;74.90
45765;DHT22;31474;45.332;10.230;2023-05-31T15:32:38;27.70;76.70
45765;DHT22;31474;45.332;10.230;2023-05-31T15:35:05;27.70;76.90